Terminal Aerodrome Forecast
Issued by NWS

Home | Current Version | Previous Version | Graphics & Text | Print | Product List | Glossary On
Versions: 1 2 3 4 5 6 7 8 9 10 11 12 13 14
000
FTUS43 KICT 171700
TAFHUT
TAF
KHUT 171726Z 1718/1818 05006KT 6SM -RA BKN060 OVC120
     FM171930 08006KT P6SM SCT120
     FM180500 16005KT P6SM FEW120=

USA.gov is the U.S. government's official web portal to all federal, state and local government web resources and services.